Time;durP1;ratioP1;P1;durP2;ratioP2;P2;SDS_P1;SDS_P2;PMS_P1;PMS_P2;Temp;Humidity;BMP_temperature;BMP_pressure;BME280_temperature;BME280_humidity;BME280_pressure;Samples;Min_cycle;Max_cycle;Signal;HPM_P1;HPM_P2
2023/08/15 00:00:52;;;;;;;966.40;874.95;;;;;;;;;;5009102;28;20048;-64
2023/08/15 00:03:19;;;;;;;968.50;879.42;;;;;;;;;;5010004;28;20077;-64
2023/08/15 00:05:45;;;;;;;961.80;874.42;;;;;;;;;;5009179;28;20052;-64
2023/08/15 00:08:12;;;;;;;972.50;882.35;;;;;;;;;;4987369;28;20038;-64
2023/08/15 00:10:38;;;;;;;967.97;880.35;;;;;;;;;;5008509;28;20120;-63
2023/08/15 00:13:05;;;;;;;968.85;878.25;;;;;;;;;;5008898;28;20209;-64
2023/08/15 00:15:31;;;;;;;952.92;866.15;;;;;;;;;;5009588;28;20438;-64
2023/08/15 00:17:58;;;;;;;961.47;872.90;;;;;;;;;;5008913;28;20049;-65
2023/08/15 00:20:25;;;;;;;964.13;877.00;;;;;;;;;;5009151;28;20370;-64
2023/08/15 00:22:51;;;;;;;950.15;863.03;;;;;;;;;;5008795;28;20038;-64
2023/08/15 00:25:18;;;;;;;951.55;864.13;;;;;;;;;;5006929;28;20066;-64
2023/08/15 00:27:44;;;;;;;968.10;878.25;;;;;;;;;;5008886;28;20568;-66
2023/08/15 00:30:11;;;;;;;955.40;866.13;;;;;;;;;;5008883;28;20054;-65
2023/08/15 00:32:38;;;;;;;961.80;874.00;;;;;;;;;;5008113;28;20030;-65
2023/08/15 00:35:05;;;;;;;954.70;866.95;;;;;;;;;;4990573;28;20475;-64
2023/08/15 00:37:33;;;;;;;949.50;861.53;;;;;;;;;;5006298;28;20062;-64
2023/08/15 00:40:00;;;;;;;970.85;878.42;;;;;;;;;;5006560;28;20444;-65
2023/08/15 00:42:28;;;;;;;946.40;860.03;;;;;;;;;;5009372;28;20042;-64
2023/08/15 00:44:56;;;;;;;958.42;868.67;;;;;;;;;;5007640;28;20044;-63
2023/08/15 00:47:23;;;;;;;961.03;872.88;;;;;;;;;;4998861;28;20480;-64
2023/08/15 00:49:52;;;;;;;953.72;867.15;;;;;;;;;;5008522;28;20144;-65
2023/08/15 00:52:18;;;;;;;960.78;871.92;;;;;;;;;;5008452;28;20352;-63
2023/08/15 00:54:47;;;;;;;953.33;864.63;;;;;;;;;;5006347;28;20545;-65
2023/08/15 00:57:13;;;;;;;946.20;859.45;;;;;;;;;;5008664;28;20037;-64
2023/08/15 00:59:41;;;;;;;962.38;871.30;;;;;;;;;;5008063;28;20053;-63
2023/08/15 01:02:08;;;;;;;950.97;862.90;;;;;;;;;;4990159;28;20050;-64
2023/08/15 01:04:36;;;;;;;949.13;861.65;;;;;;;;;;5008331;28;20586;-64
2023/08/15 01:07:02;;;;;;;961.20;869.10;;;;;;;;;;5010281;28;20148;-64
2023/08/15 01:09:29;;;;;;;954.67;864.05;;;;;;;;;;5012784;28;20054;-65
2023/08/15 01:12:00;;;;;;;943.03;858.13;;;;;;;;;;5010777;28;20443;-64
2023/08/15 01:14:29;;;;;;;938.63;851.78;;;;;;;;;;5009986;28;20042;-64
2023/08/15 01:16:56;;;;;;;939.22;851.00;;;;;;;;;;5010657;28;20041;-65
2023/08/15 01:19:35;;;;;;;948.13;861.20;;;;;;;;;;5012555;28;20084;-66
2023/08/15 01:22:04;;;;;;;956.60;864.67;;;;;;;;;;5010845;28;20049;-65
2023/08/15 01:24:32;;;;;;;937.03;849.72;;;;;;;;;;5012776;28;20057;-65
2023/08/15 01:26:59;;;;;;;944.67;856.33;;;;;;;;;;5012137;28;20463;-65
2023/08/15 01:29:25;;;;;;;948.17;859.50;;;;;;;;;;5011588;28;20097;-66
2023/08/15 01:32:00;;;;;;;941.97;855.72;;;;;;;;;;5011885;28;20537;-65
2023/08/15 01:34:41;;;;;;;947.95;860.13;;;;;;;;;;5007937;28;20065;-65
2023/08/15 01:37:16;;;;;;;949.70;860.20;;;;;;;;;;5019052;28;20401;-65
2023/08/15 01:39:46;;;;;;;946.47;858.95;;;;;;;;;;5002702;28;20156;-65
2023/08/15 01:42:13;;;;;;;949.00;861.95;;;;;;;;;;5006129;28;20633;-65
2023/08/15 01:44:40;;;;;;;936.85;851.00;;;;;;;;;;5010041;28;20486;-64
2023/08/15 01:47:07;;;;;;;946.28;855.75;;;;;;;;;;5009474;28;20442;-64
2023/08/15 01:49:34;;;;;;;944.33;855.63;;;;;;;;;;5011611;28;20462;-65
2023/08/15 01:52:00;;;;;;;952.05;861.92;;;;;;;;;;5010444;28;20515;-65
2023/08/15 01:54:27;;;;;;;942.13;852.47;;;;;;;;;;4994387;28;20054;-65
2023/08/15 01:56:56;;;;;;;936.55;850.75;;;;;;;;;;5009180;28;20659;-65
2023/08/15 01:59:22;;;;;;;939.72;852.50;;;;;;;;;;5002474;28;20042;-65
2023/08/15 02:01:49;;;;;;;943.65;855.08;;;;;;;;;;4984253;22;20061;-65
2023/08/15 02:04:15;;;;;;;939.22;850.88;;;;;;;;;;4993508;28;20073;-65
2023/08/15 02:06:42;;;;;;;937.13;851.00;;;;;;;;;;4987260;28;20116;-65
2023/08/15 02:09:09;;;;;;;952.05;861.22;;;;;;;;;;4993036;28;20081;-65
2023/08/15 02:11:36;;;;;;;940.20;853.08;;;;;;;;;;4982070;28;20541;-65
2023/08/15 02:14:02;;;;;;;935.08;848.10;;;;;;;;;;5001884;28;20085;-65
2023/08/15 02:16:29;;;;;;;936.85;850.42;;;;;;;;;;5002278;28;20046;-66
2023/08/15 02:18:55;;;;;;;945.53;854.25;;;;;;;;;;4981660;28;20050;-65
2023/08/15 02:21:23;;;;;;;924.20;839.30;;;;;;;;;;5007696;28;20049;-65
2023/08/15 02:23:50;;;;;;;930.22;842.63;;;;;;;;;;5003925;28;20550;-65
2023/08/15 02:26:16;;;;;;;931.75;844.88;;;;;;;;;;4990111;28;20065;-65
2023/08/15 02:28:43;;;;;;;934.30;847.70;;;;;;;;;;5002642;28;20046;-66
2023/08/15 02:31:10;;;;;;;935.95;845.95;;;;;;;;;;5002188;28;20049;-65
2023/08/15 02:33:37;;;;;;;931.15;844.17;;;;;;;;;;4991190;28;20518;-65
2023/08/15 02:36:08;;;;;;;935.17;847.33;;;;;;;;;;4983641;28;20057;-65
2023/08/15 02:38:36;;;;;;;931.33;843.47;;;;;;;;;;5000053;28;20054;-65
2023/08/15 02:41:04;;;;;;;932.38;844.42;;;;;;;;;;5001990;28;20350;-65
2023/08/15 02:43:31;;;;;;;921.05;835.28;;;;;;;;;;5002805;28;20049;-65
2023/08/15 02:45:58;;;;;;;932.97;842.47;;;;;;;;;;5001047;28;20097;-65
2023/08/15 02:48:25;;;;;;;934.67;848.83;;;;;;;;;;5004337;28;20061;-66
2023/08/15 02:50:52;;;;;;;931.78;844.72;;;;;;;;;;4991787;28;20050;-65
2023/08/15 02:53:18;;;;;;;934.58;846.80;;;;;;;;;;4989959;28;20062;-65
2023/08/15 02:55:48;;;;;;;933.35;846.03;;;;;;;;;;5001273;28;20472;-65
2023/08/15 02:58:15;;;;;;;936.58;848.40;;;;;;;;;;4985093;28;20046;-65
2023/08/15 03:00:42;;;;;;;932.60;846.28;;;;;;;;;;4990898;28;20514;-65
2023/08/15 03:03:09;;;;;;;921.50;835.15;;;;;;;;;;4999356;28;20054;-66
2023/08/15 03:05:39;;;;;;;917.22;833.85;;;;;;;;;;5001223;28;20447;-65
2023/08/15 03:08:05;;;;;;;925.35;836.42;;;;;;;;;;5001307;28;20053;-65
2023/08/15 03:10:33;;;;;;;918.47;833.60;;;;;;;;;;5003308;28;20058;-65
2023/08/15 03:12:59;;;;;;;932.20;840.90;;;;;;;;;;4981599;28;20133;-65
2023/08/15 03:15:26;;;;;;;920.22;833.60;;;;;;;;;;5002392;28;20050;-64
2023/08/15 03:17:54;;;;;;;925.72;840.03;;;;;;;;;;5001706;28;20661;-65
2023/08/15 03:20:21;;;;;;;921.22;836.72;;;;;;;;;;5000921;28;20042;-65
2023/08/15 03:22:47;;;;;;;921.78;833.30;;;;;;;;;;5004456;28;20066;-65
2023/08/15 03:25:14;;;;;;;918.90;831.95;;;;;;;;;;4983899;28;20046;-65
2023/08/15 03:27:42;;;;;;;926.10;839.00;;;;;;;;;;4990333;28;20105;-64
2023/08/15 03:30:08;;;;;;;915.85;828.97;;;;;;;;;;4991069;28;20136;-64
2023/08/15 03:32:35;;;;;;;935.53;848.58;;;;;;;;;;4979558;28;20061;-65
2023/08/15 03:35:02;;;;;;;923.25;836.88;;;;;;;;;;4989859;28;20077;-66
2023/08/15 03:37:29;;;;;;;930.13;841.10;;;;;;;;;;4979085;28;20038;-65
2023/08/15 03:39:57;;;;;;;926.40;837.65;;;;;;;;;;4981456;28;20051;-65
2023/08/15 03:42:24;;;;;;;926.05;840.05;;;;;;;;;;5003475;28;20477;-65
2023/08/15 03:44:50;;;;;;;928.95;841.25;;;;;;;;;;5000284;28;20051;-65
2023/08/15 03:47:17;;;;;;;926.47;838.90;;;;;;;;;;4991391;28;20049;-65
2023/08/15 03:49:43;;;;;;;929.97;843.55;;;;;;;;;;5000110;28;20053;-65
2023/08/15 03:52:10;;;;;;;934.63;845.30;;;;;;;;;;5001198;28;20104;-66
2023/08/15 03:54:37;;;;;;;933.75;845.50;;;;;;;;;;4989310;28;20161;-66
2023/08/15 03:57:04;;;;;;;929.40;843.22;;;;;;;;;;4964897;28;20069;-65
2023/08/15 03:59:31;;;;;;;928.83;841.63;;;;;;;;;;4981555;28;20411;-66
2023/08/15 04:01:58;;;;;;;929.45;843.30;;;;;;;;;;4988499;28;20109;-65
2023/08/15 04:04:24;;;;;;;925.53;839.17;;;;;;;;;;5001682;28;20135;-65
2023/08/15 04:06:51;;;;;;;937.20;848.78;;;;;;;;;;4998594;28;20061;-65
2023/08/15 04:09:18;;;;;;;942.10;849.70;;;;;;;;;;4990236;28;20545;-65
2023/08/15 04:11:45;;;;;;;940.28;853.70;;;;;;;;;;4998926;28;20042;-65
2023/08/15 04:14:11;;;;;;;936.85;848.20;;;;;;;;;;4988876;28;20048;-64
2023/08/15 04:16:38;;;;;;;939.70;852.53;;;;;;;;;;5001575;28;20506;-64
2023/08/15 04:19:05;;;;;;;941.10;848.30;;;;;;;;;;4981222;28;20046;-65
2023/08/15 04:21:32;;;;;;;944.70;855.10;;;;;;;;;;4991977;28;20089;-65
2023/08/15 04:24:01;;;;;;;944.92;858.75;;;;;;;;;;4999341;28;20057;-64
2023/08/15 04:26:28;;;;;;;942.83;856.42;;;;;;;;;;4987725;28;20051;-65
2023/08/15 04:28:54;;;;;;;946.40;860.55;;;;;;;;;;4993924;28;20045;-66
2023/08/15 04:31:21;;;;;;;958.65;868.92;;;;;;;;;;5001210;28;20046;-66
2023/08/15 04:33:48;;;;;;;960.15;871.33;;;;;;;;;;4990640;28;20065;-65
2023/08/15 04:36:14;;;;;;;959.00;871.28;;;;;;;;;;5001760;28;20509;-65
2023/08/15 04:38:41;;;;;;;988.58;898.00;;;;;;;;;;4998252;28;20435;-65
2023/08/15 04:41:08;;;;;;;1016.40;923.33;;;;;;;;;;4997308;28;20062;-65
2023/08/15 04:43:34;;;;;;;1044.28;948.85;;;;;;;;;;4978160;28;20042;-65
2023/08/15 04:46:01;;;;;;;1055.70;959.65;;;;;;;;;;4999193;28;20057;-65
2023/08/15 04:48:27;;;;;;;1070.60;978.17;;;;;;;;;;4989485;28;20046;-65
2023/08/15 04:50:54;;;;;;;1087.43;992.05;;;;;;;;;;4990673;28;20053;-64
2023/08/15 04:53:21;;;;;;;1115.32;999.90;;;;;;;;;;4998522;28;20425;-65
2023/08/15 04:55:47;;;;;;;1122.55;999.90;;;;;;;;;;4979225;28;20104;-65
2023/08/15 04:58:15;;;;;;;1139.13;999.90;;;;;;;;;;4998746;28;20048;-65
2023/08/15 05:00:45;;;;;;;1151.45;999.90;;;;;;;;;;5000835;28;20062;-65
2023/08/15 05:03:11;;;;;;;1147.70;999.90;;;;;;;;;;5000326;28;20072;-65
2023/08/15 05:05:38;;;;;;;1158.95;999.90;;;;;;;;;;4977831;28;20046;-65
2023/08/15 05:08:06;;;;;;;1173.40;999.90;;;;;;;;;;4987598;28;20046;-65
2023/08/15 05:10:33;;;;;;;1172.22;999.90;;;;;;;;;;5000219;28;20125;-65
2023/08/15 05:13:00;;;;;;;1179.65;999.90;;;;;;;;;;4998640;28;20050;-65
2023/08/15 05:15:28;;;;;;;1174.55;999.90;;;;;;;;;;4990967;28;20132;-65
2023/08/15 05:17:55;;;;;;;1176.32;999.90;;;;;;;;;;4997717;28;20049;-65
2023/08/15 05:20:22;;;;;;;1188.57;999.90;;;;;;;;;;4998023;28;20042;-66
2023/08/15 05:22:49;;;;;;;1190.85;999.90;;;;;;;;;;5003639;28;20077;-65
2023/08/15 05:25:16;;;;;;;1191.75;999.90;;;;;;;;;;5000244;28;20053;-66
2023/08/15 05:27:48;;;;;;;1193.78;999.90;;;;;;;;;;4980262;28;20396;-65
2023/08/15 05:30:15;;;;;;;1202.93;999.90;;;;;;;;;;4997878;28;20101;-65
2023/08/15 05:32:41;;;;;;;1200.75;999.90;;;;;;;;;;5001054;28;20038;-64
2023/08/15 05:35:08;;;;;;;1204.82;999.90;;;;;;;;;;4998713;28;20058;-64
2023/08/15 05:37:35;;;;;;;1212.90;999.90;;;;;;;;;;4996979;28;20124;-65
2023/08/15 05:40:02;;;;;;;1223.50;999.90;;;;;;;;;;4986986;28;20058;-65
2023/08/15 05:42:30;;;;;;;1217.55;999.90;;;;;;;;;;4988244;28;20038;-65
2023/08/15 05:44:57;;;;;;;1235.65;999.90;;;;;;;;;;4998513;28;20042;-65
2023/08/15 05:47:23;;;;;;;1230.47;999.90;;;;;;;;;;4999998;28;20113;-65
2023/08/15 05:49:50;;;;;;;1229.88;999.90;;;;;;;;;;4987176;28;20093;-65
2023/08/15 05:52:17;;;;;;;1239.97;999.90;;;;;;;;;;5004956;28;20045;-65
2023/08/15 05:54:43;;;;;;;1240.47;999.90;;;;;;;;;;5011480;28;20042;-64
2023/08/15 05:57:10;;;;;;;1239.53;999.90;;;;;;;;;;5009702;28;20119;-65
2023/08/15 05:59:36;;;;;;;1253.20;999.90;;;;;;;;;;5004638;28;20043;-64
2023/08/15 06:02:03;;;;;;;1248.78;999.90;;;;;;;;;;5001583;28;20133;-63
2023/08/15 06:04:29;;;;;;;1242.85;999.90;;;;;;;;;;5001379;28;20548;-65
2023/08/15 06:06:56;;;;;;;1263.68;999.90;;;;;;;;;;5002003;28;20053;-63
2023/08/15 06:09:23;;;;;;;1260.90;999.90;;;;;;;;;;5002944;28;20746;-66
2023/08/15 06:11:50;;;;;;;1261.82;999.90;;;;;;;;;;5001945;28;20046;-65
2023/08/15 06:14:20;;;;;;;1269.40;999.90;;;;;;;;;;5000013;28;20042;-67
2023/08/15 06:16:46;;;;;;;1261.22;999.90;;;;;;;;;;5003448;28;20033;-64
2023/08/15 06:19:13;;;;;;;1266.28;999.90;;;;;;;;;;5003377;28;20089;-63
2023/08/15 06:21:41;;;;;;;1267.43;999.90;;;;;;;;;;5006283;28;20069;-64
2023/08/15 06:24:11;;;;;;;1272.85;999.90;;;;;;;;;;5003567;28;20125;-66
2023/08/15 06:26:38;;;;;;;1272.35;999.90;;;;;;;;;;5001547;28;20042;-66
2023/08/15 06:29:05;;;;;;;1268.15;999.90;;;;;;;;;;4990104;28;20640;-66
2023/08/15 06:31:33;;;;;;;1263.90;999.90;;;;;;;;;;5005089;28;20069;-66
2023/08/15 06:34:00;;;;;;;1265.57;999.90;;;;;;;;;;5002698;28;20052;-66
2023/08/15 06:36:27;;;;;;;1262.53;999.90;;;;;;;;;;5001941;28;20050;-66
2023/08/15 06:38:54;;;;;;;1257.97;999.90;;;;;;;;;;5004149;28;20084;-65
2023/08/15 06:41:20;;;;;;;1266.65;999.90;;;;;;;;;;4998519;28;20125;-67
2023/08/15 06:43:49;;;;;;;1263.40;999.90;;;;;;;;;;4982385;28;20097;-66
2023/08/15 06:46:15;;;;;;;1270.85;999.90;;;;;;;;;;5002447;28;20049;-66
2023/08/15 06:48:42;;;;;;;1271.70;999.90;;;;;;;;;;5005290;28;20085;-66
2023/08/15 06:51:09;;;;;;;1279.18;999.90;;;;;;;;;;5000502;28;20136;-65
2023/08/15 06:53:35;;;;;;;1273.13;999.90;;;;;;;;;;5000302;28;20069;-66
2023/08/15 06:56:02;;;;;;;1266.78;999.90;;;;;;;;;;4984470;28;20057;-66
2023/08/15 06:58:31;;;;;;;1287.32;999.90;;;;;;;;;;5004994;28;20033;-66
2023/08/15 07:00:58;;;;;;;1298.63;999.90;;;;;;;;;;5001138;28;20400;-66
2023/08/15 07:03:25;;;;;;;1289.78;999.90;;;;;;;;;;5003525;28;20076;-66
2023/08/15 07:05:52;;;;;;;1286.55;999.90;;;;;;;;;;5002035;28;20132;-66
2023/08/15 07:08:19;;;;;;;1285.03;999.90;;;;;;;;;;4995241;28;20511;-64
2023/08/15 07:10:45;;;;;;;1290.88;999.90;;;;;;;;;;5005886;28;20045;-66
2023/08/15 07:13:12;;;;;;;1312.70;999.90;;;;;;;;;;5001177;28;20494;-64
2023/08/15 07:15:38;;;;;;;1303.63;999.90;;;;;;;;;;5000901;28;20140;-65
2023/08/15 07:18:05;;;;;;;1299.47;999.90;;;;;;;;;;5001058;28;20070;-65
2023/08/15 07:20:31;;;;;;;1295.80;999.90;;;;;;;;;;4998981;28;20066;-65
2023/08/15 07:23:00;;;;;;;1303.10;999.90;;;;;;;;;;4990010;28;20046;-66
2023/08/15 07:25:28;;;;;;;1308.18;999.90;;;;;;;;;;5001378;28;20053;-65
2023/08/15 07:27:55;;;;;;;1320.75;999.90;;;;;;;;;;5003713;28;20490;-67
2023/08/15 07:30:21;;;;;;;1303.80;999.90;;;;;;;;;;4998732;28;20040;-65
2023/08/15 07:32:48;;;;;;;1306.85;999.90;;;;;;;;;;5001137;28;20105;-63
2023/08/15 07:35:15;;;;;;;1313.30;999.90;;;;;;;;;;4988692;28;20066;-64
2023/08/15 07:37:41;;;;;;;1297.55;999.90;;;;;;;;;;4983009;28;20050;-64
2023/08/15 07:40:09;;;;;;;1330.10;999.90;;;;;;;;;;4997133;28;20054;-63
2023/08/15 07:42:36;;;;;;;1314.72;999.90;;;;;;;;;;4995892;28;20491;-64
2023/08/15 07:45:04;;;;;;;1310.13;999.90;;;;;;;;;;4997619;28;20038;-63
2023/08/15 07:47:34;;;;;;;1346.70;999.90;;;;;;;;;;4993634;28;20038;-64
2023/08/15 07:50:22;;;;;;;1327.75;999.90;;;;;;;;;;5002443;28;20471;-63
2023/08/15 07:52:49;;;;;;;1298.35;999.90;;;;;;;;;;4994040;28;20038;-64
2023/08/15 07:55:19;;;;;;;1298.40;999.90;;;;;;;;;;4996650;28;20060;-64
2023/08/15 07:57:50;;;;;;;1287.53;999.90;;;;;;;;;;4993700;28;20038;-64
2023/08/15 08:00:18;;;;;;;1279.95;999.90;;;;;;;;;;4980563;28;20752;-68
2023/08/15 08:02:45;;;;;;;1275.97;999.90;;;;;;;;;;4988807;28;20628;-64
2023/08/15 08:05:13;;;;;;;1310.43;999.90;;;;;;;;;;4994558;28;20050;-64
2023/08/15 08:07:44;;;;;;;1270.05;999.90;;;;;;;;;;4999430;28;20066;-64
2023/08/15 08:10:12;;;;;;;1257.78;999.90;;;;;;;;;;4980899;28;20081;-64
2023/08/15 08:12:38;;;;;;;1244.35;999.90;;;;;;;;;;5000708;28;20046;-64
2023/08/15 08:15:05;;;;;;;1251.60;999.90;;;;;;;;;;4998091;28;20060;-64
2023/08/15 08:17:32;;;;;;;1246.32;999.90;;;;;;;;;;5003399;28;20512;-63
2023/08/15 08:19:59;;;;;;;1244.35;999.90;;;;;;;;;;5001801;28;20557;-64
2023/08/15 08:22:25;;;;;;;1241.00;999.90;;;;;;;;;;5008095;28;20479;-65
2023/08/15 08:24:53;;;;;;;1239.50;999.90;;;;;;;;;;5005858;28;20041;-65
2023/08/15 08:27:20;;;;;;;1235.63;999.90;;;;;;;;;;5004706;28;20030;-65
2023/08/15 08:29:48;;;;;;;1236.35;999.90;;;;;;;;;;5006230;28;20061;-64
2023/08/15 08:32:15;;;;;;;1230.75;999.90;;;;;;;;;;4986238;28;20046;-63
2023/08/15 08:34:42;;;;;;;1233.90;999.90;;;;;;;;;;4998883;28;20123;-64
2023/08/15 08:37:10;;;;;;;1252.32;999.90;;;;;;;;;;4976090;28;20050;-64
2023/08/15 08:39:36;;;;;;;1241.82;999.90;;;;;;;;;;5005659;28;20119;-64
2023/08/15 08:42:03;;;;;;;1219.00;999.90;;;;;;;;;;4999625;28;20069;-64
2023/08/15 08:44:31;;;;;;;1218.28;999.90;;;;;;;;;;5004050;28;20045;-64
2023/08/15 08:46:58;;;;;;;1227.47;999.90;;;;;;;;;;4999781;28;20038;-65
2023/08/15 08:49:25;;;;;;;1219.00;999.90;;;;;;;;;;5002079;28;20053;-65
2023/08/15 08:51:52;;;;;;;1230.43;999.90;;;;;;;;;;4998707;28;20065;-64
2023/08/15 08:54:19;;;;;;;1234.32;999.90;;;;;;;;;;4994843;28;20042;-64
2023/08/15 08:57:04;;;;;;;1208.43;999.90;;;;;;;;;;5001705;28;20400;-65
2023/08/15 08:59:32;;;;;;;1220.57;999.90;;;;;;;;;;4987899;28;20100;-64
2023/08/15 09:01:59;;;;;;;1216.43;999.90;;;;;;;;;;5002216;28;20068;-63
2023/08/15 09:04:25;;;;;;;1218.78;999.90;;;;;;;;;;4999936;28;20046;-64
2023/08/15 09:06:53;;;;;;;1233.13;999.90;;;;;;;;;;4997256;28;20042;-64
2023/08/15 09:09:20;;;;;;;1235.32;999.90;;;;;;;;;;4996087;28;20252;-62
2023/08/15 09:11:47;;;;;;;1229.03;999.90;;;;;;;;;;4995797;28;20561;-63
2023/08/15 09:14:13;;;;;;;1262.72;999.90;;;;;;;;;;4987146;28;20053;-67
2023/08/15 09:16:49;;;;;;;1255.68;999.90;;;;;;;;;;5000545;28;20046;-65
2023/08/15 09:19:16;;;;;;;1231.78;999.90;;;;;;;;;;4990988;28;20061;-66
2023/08/15 09:21:43;;;;;;;1235.90;999.90;;;;;;;;;;5001573;28;20045;-63
2023/08/15 09:24:10;;;;;;;1225.35;999.90;;;;;;;;;;5004770;28;20103;-62
2023/08/15 09:26:38;;;;;;;1235.35;999.90;;;;;;;;;;4989062;28;20411;-62
2023/08/15 09:29:05;;;;;;;1216.93;999.90;;;;;;;;;;4977919;28;20050;-64
2023/08/15 09:31:32;;;;;;;1224.32;999.90;;;;;;;;;;5005809;28;20466;-66
2023/08/15 09:33:59;;;;;;;1242.45;999.90;;;;;;;;;;5002687;28;20073;-70
2023/08/15 09:36:26;;;;;;;1233.32;999.90;;;;;;;;;;5005755;28;20487;-68
2023/08/15 09:38:55;;;;;;;1234.72;999.90;;;;;;;;;;4988090;28;20391;-69
2023/08/15 09:41:25;;;;;;;1231.93;999.90;;;;;;;;;;5004396;28;20071;-69
2023/08/15 09:43:54;;;;;;;1221.28;999.90;;;;;;;;;;4976461;28;20133;-69
2023/08/15 09:46:22;;;;;;;1240.72;999.90;;;;;;;;;;5001580;28;20054;-69
2023/08/15 09:48:52;;;;;;;1240.20;999.90;;;;;;;;;;4996065;28;20054;-69
2023/08/15 09:51:21;;;;;;;1234.45;999.90;;;;;;;;;;5008276;28;20052;-69
2023/08/15 09:53:55;;;;;;;1224.80;999.90;;;;;;;;;;5006086;28;20034;-70
2023/08/15 09:56:22;;;;;;;1234.85;999.90;;;;;;;;;;5002679;28;20042;-69
2023/08/15 09:58:49;;;;;;;1236.20;999.90;;;;;;;;;;4976392;28;20495;-69
2023/08/15 10:01:17;;;;;;;1236.72;999.90;;;;;;;;;;5003861;28;20058;-69
2023/08/15 10:03:44;;;;;;;1226.18;999.90;;;;;;;;;;4993722;28;20120;-70
2023/08/15 10:06:12;;;;;;;1230.90;999.90;;;;;;;;;;5006632;28;20046;-69
2023/08/15 10:08:40;;;;;;;1225.45;999.90;;;;;;;;;;4983618;28;20074;-69
2023/08/15 10:11:08;;;;;;;1244.22;999.90;;;;;;;;;;4993174;28;20050;-70
2023/08/15 10:13:36;;;;;;;1237.63;999.90;;;;;;;;;;4982312;28;20050;-69
2023/08/15 10:16:04;;;;;;;1248.40;999.90;;;;;;;;;;4985632;28;20050;-70
2023/08/15 10:18:33;;;;;;;1236.40;999.90;;;;;;;;;;4995642;28;20160;-69
2023/08/15 10:21:00;;;;;;;1239.55;999.90;;;;;;;;;;4994070;28;20042;-70
2023/08/15 10:23:32;;;;;;;1229.18;999.90;;;;;;;;;;5005908;28;20050;-69
2023/08/15 10:26:00;;;;;;;1226.63;999.90;;;;;;;;;;5001408;28;20101;-69
2023/08/15 10:28:28;;;;;;;1244.18;999.90;;;;;;;;;;5000386;28;20495;-70
2023/08/15 10:30:55;;;;;;;1245.32;999.90;;;;;;;;;;5001461;28;20858;-72
2023/08/15 10:33:26;;;;;;;1244.07;999.90;;;;;;;;;;4987138;28;20117;-68
2023/08/15 10:35:56;;;;;;;1238.45;999.90;;;;;;;;;;4987557;28;20124;-69
2023/08/15 10:38:25;;;;;;;1243.07;999.90;;;;;;;;;;4991169;28;20049;-67
2023/08/15 10:40:53;;;;;;;1248.15;999.90;;;;;;;;;;5003921;28;20065;-63
2023/08/15 10:43:24;;;;;;;1244.97;999.90;;;;;;;;;;5004061;28;20216;-65
2023/08/15 10:45:52;;;;;;;1257.75;999.90;;;;;;;;;;5003231;28;20042;-66
2023/08/15 10:48:41;;;;;;;1249.25;999.90;;;;;;;;;;5005129;28;20038;-66
2023/08/15 10:51:31;;;;;;;1261.20;999.90;;;;;;;;;;5004780;28;20062;-66
2023/08/15 10:53:59;;;;;;;1252.45;999.90;;;;;;;;;;5004158;28;20061;-67
2023/08/15 10:56:33;;;;;;;1257.13;999.90;;;;;;;;;;4985806;28;20042;-67
2023/08/15 10:59:04;;;;;;;1252.63;999.90;;;;;;;;;;4989348;28;20049;-65
2023/08/15 11:01:31;;;;;;;1245.25;999.90;;;;;;;;;;4994095;28;20137;-67
2023/08/15 11:03:58;;;;;;;1252.07;999.90;;;;;;;;;;5002637;28;20038;-65
2023/08/15 11:06:25;;;;;;;1251.72;999.90;;;;;;;;;;5001603;28;20125;-66
2023/08/15 11:08:53;;;;;;;1248.43;999.90;;;;;;;;;;4990703;28;20105;-65
2023/08/15 11:11:20;;;;;;;1252.60;999.90;;;;;;;;;;4978015;28;20042;-65
2023/08/15 11:13:47;;;;;;;1254.88;999.90;;;;;;;;;;5002522;28;20042;-66
2023/08/15 11:16:21;;;;;;;1261.45;999.90;;;;;;;;;;5003347;28;20046;-65
2023/08/15 11:18:48;;;;;;;1253.85;999.90;;;;;;;;;;4994683;28;20081;-65
2023/08/15 11:21:16;;;;;;;1264.65;999.90;;;;;;;;;;4993367;28;20060;-65
2023/08/15 11:23:44;;;;;;;1256.50;999.90;;;;;;;;;;5007487;28;20125;-66
2023/08/15 11:26:15;;;;;;;1260.65;999.90;;;;;;;;;;5002732;28;20502;-64
2023/08/15 11:28:42;;;;;;;1256.40;999.90;;;;;;;;;;5003725;28;20042;-64
2023/08/15 11:31:10;;;;;;;1284.45;999.90;;;;;;;;;;5002525;28;20108;-66
2023/08/15 11:33:49;;;;;;;1252.05;999.90;;;;;;;;;;5003123;28;20117;-65
2023/08/15 11:36:16;;;;;;;1265.20;999.90;;;;;;;;;;5000612;28;20054;-65
2023/08/15 11:38:42;;;;;;;1251.40;999.90;;;;;;;;;;5011432;28;20531;-66
2023/08/15 11:41:09;;;;;;;1271.03;999.90;;;;;;;;;;4987285;28;20069;-66
2023/08/15 11:43:36;;;;;;;1264.72;999.90;;;;;;;;;;4981192;28;20042;-64
2023/08/15 11:46:03;;;;;;;1253.15;999.90;;;;;;;;;;5001076;28;20041;-66
2023/08/15 11:48:31;;;;;;;1253.68;999.90;;;;;;;;;;4999926;28;20101;-65
2023/08/15 11:50:57;;;;;;;1260.45;999.90;;;;;;;;;;5005855;28;20049;-66
2023/08/15 11:53:24;;;;;;;1252.80;999.90;;;;;;;;;;5002095;28;20038;-66
2023/08/15 11:55:51;;;;;;;1259.93;999.90;;;;;;;;;;5007305;28;20034;-65
2023/08/15 11:58:24;;;;;;;1262.45;999.90;;;;;;;;;;5005407;28;20096;-66
2023/08/15 12:00:50;;;;;;;;;;;;;;;;;;5000748;28;20061;-65
2023/08/15 12:03:17;;;;;;;1262.50;999.90;;;;;;;;;;5021490;28;20337;-65
2023/08/15 12:05:46;;;;;;;1256.75;999.90;;;;;;;;;;5001329;28;20074;-66
2023/08/15 12:08:14;;;;;;;1259.45;999.90;;;;;;;;;;4975423;28;20093;-66
2023/08/15 12:10:41;;;;;;;1257.90;999.90;;;;;;;;;;4982002;28;20120;-65
2023/08/15 12:13:08;;;;;;;1271.05;999.90;;;;;;;;;;4998431;28;20152;-66
2023/08/15 12:15:35;;;;;;;1249.05;999.90;;;;;;;;;;5002806;28;20225;-65
2023/08/15 12:18:02;;;;;;;1258.13;999.90;;;;;;;;;;4985222;28;20404;-65
2023/08/15 12:20:29;;;;;;;1254.38;999.90;;;;;;;;;;5008132;28;20365;-66
2023/08/15 12:22:56;;;;;;;1257.88;999.90;;;;;;;;;;5002651;28;20042;-64
2023/08/15 12:25:23;;;;;;;1264.40;999.90;;;;;;;;;;4984583;28;20053;-66
2023/08/15 12:27:49;;;;;;;1259.00;999.90;;;;;;;;;;5000237;28;20050;-66
2023/08/15 12:30:16;;;;;;;1259.40;999.90;;;;;;;;;;5005237;28;20050;-66
2023/08/15 12:32:43;;;;;;;1261.10;999.90;;;;;;;;;;5000079;28;20053;-66
2023/08/15 12:35:11;;;;;;;1262.47;999.90;;;;;;;;;;5003859;28;20046;-66
2023/08/15 12:37:38;;;;;;;1267.10;999.90;;;;;;;;;;5002212;28;20069;-65
2023/08/15 12:40:05;;;;;;;1268.55;999.90;;;;;;;;;;5002331;28;20067;-67
2023/08/15 12:42:40;;;;;;;1258.65;999.90;;;;;;;;;;5006281;28;20050;-67
2023/08/15 12:45:08;;;;;;;1268.85;999.90;;;;;;;;;;4984164;28;20045;-66
2023/08/15 12:47:34;;;;;;;1267.53;999.90;;;;;;;;;;4997239;28;20125;-66
2023/08/15 12:50:03;;;;;;;1269.82;999.90;;;;;;;;;;5005487;28;20124;-67
2023/08/15 12:52:31;;;;;;;1263.53;999.90;;;;;;;;;;4988274;28;20074;-66
2023/08/15 12:54:58;;;;;;;1269.75;999.90;;;;;;;;;;4989956;28;20046;-67
2023/08/15 12:57:24;;;;;;;1264.28;999.90;;;;;;;;;;4992530;28;20049;-66
2023/08/15 12:59:51;;;;;;;1272.72;999.90;;;;;;;;;;5009394;28;20042;-67
2023/08/15 13:02:18;;;;;;;1262.05;999.90;;;;;;;;;;4990491;28;20062;-66
2023/08/15 13:04:46;;;;;;;1258.60;999.90;;;;;;;;;;4985340;28;20057;-66
2023/08/15 13:07:12;;;;;;;1273.43;999.90;;;;;;;;;;5004891;28;20037;-66
2023/08/15 13:09:39;;;;;;;1258.95;999.90;;;;;;;;;;5007804;28;20502;-65
2023/08/15 13:12:06;;;;;;;1259.10;999.90;;;;;;;;;;4988896;28;20097;-66
2023/08/15 13:14:32;;;;;;;1264.82;999.90;;;;;;;;;;5002922;28;20038;-66
2023/08/15 13:17:00;;;;;;;1259.97;999.90;;;;;;;;;;4995852;28;20100;-65
2023/08/15 13:19:27;;;;;;;1265.32;999.90;;;;;;;;;;4996643;28;20049;-66
2023/08/15 13:21:55;;;;;;;1259.05;999.90;;;;;;;;;;5010778;28;20049;-65
2023/08/15 13:24:22;;;;;;;1254.22;999.90;;;;;;;;;;5007926;28;20123;-66
2023/08/15 13:26:49;;;;;;;1251.50;999.90;;;;;;;;;;4984535;28;20104;-66
2023/08/15 13:29:15;;;;;;;1257.72;999.90;;;;;;;;;;5005625;28;20502;-66
2023/08/15 13:31:42;;;;;;;1262.70;999.90;;;;;;;;;;4983656;28;20077;-65
2023/08/15 13:34:09;;;;;;;1273.50;999.90;;;;;;;;;;4986345;28;20050;-67
2023/08/15 13:36:35;;;;;;;1257.18;999.90;;;;;;;;;;5003591;28;20050;-66
2023/08/15 13:39:02;;;;;;;1253.57;999.90;;;;;;;;;;5004681;28;20126;-66
2023/08/15 13:41:29;;;;;;;1250.00;999.90;;;;;;;;;;5006291;28;20050;-65
2023/08/15 13:43:55;;;;;;;1268.15;999.90;;;;;;;;;;5009306;28;20062;-67
2023/08/15 13:46:22;;;;;;;1251.20;999.90;;;;;;;;;;5012521;28;20038;-66